createdAt,value
2022-12-19T00:01:31.096Z,27.77
2022-12-19T00:04:07.673Z,26.88
2022-12-19T00:06:37.398Z,27.77
2022-12-19T00:09:07.527Z,28.20
2022-12-19T00:11:34.610Z,25.48
2022-12-19T00:16:29.533Z,26.75
2022-12-19T00:18:58.662Z,21.77
2022-12-19T00:21:28.615Z,27.58
2022-12-19T00:23:55.879Z,23.55
2022-12-19T00:26:26.455Z,29.70
2022-12-19T00:28:58.601Z,23.45
2022-12-19T00:31:27.185Z,21.42
2022-12-19T00:33:53.754Z,25.80
2022-12-19T00:36:23.192Z,26.80
2022-12-19T00:38:51.772Z,26.88
2022-12-19T00:41:21.006Z,30.33
2022-12-19T00:43:47.640Z,22.98
2022-12-19T00:46:17.107Z,22.58
2022-12-19T00:48:43.838Z,22.15
2022-12-19T00:51:16.284Z,24.50
2022-12-19T00:53:43.868Z,26.45
2022-12-19T00:56:13.905Z,27.95
2022-12-19T00:58:46.598Z,25.67
2022-12-19T01:01:27.020Z,23.48
2022-12-19T01:04:26.457Z,26.73
2022-12-19T01:06:42.276Z,23.90
2022-12-19T01:11:54.978Z,29.77
2022-12-19T01:14:23.274Z,23.65
2022-12-19T01:16:50.899Z,25.65
2022-12-19T01:19:20.752Z,23.77
2022-12-19T01:21:48.236Z,25.50
2022-12-19T01:24:18.411Z,26.15
2022-12-19T01:26:49.253Z,21.15
2022-12-19T01:29:16.420Z,23.05
2022-12-19T01:31:42.991Z,27.05
2022-12-19T01:36:39.771Z,22.08
2022-12-19T01:39:06.879Z,26.00
2022-12-19T01:41:34.933Z,23.80
2022-12-19T01:44:08.240Z,27.17
2022-12-19T01:46:41.501Z,31.13
2022-12-19T01:49:35.911Z,22.88
2022-12-19T01:52:10.368Z,27.55
2022-12-19T01:54:48.297Z,23.75
2022-12-19T01:57:19.736Z,29.88
2022-12-19T01:59:54.305Z,19.65
2022-12-19T02:02:28.549Z,25.73
2022-12-19T02:04:55.649Z,25.35
2022-12-19T02:07:24.762Z,27.45
2022-12-19T02:09:56.991Z,21.00
2022-12-19T02:12:37.688Z,25.70
2022-12-19T02:15:09.524Z,26.80
2022-12-19T02:18:09.222Z,28.38
2022-12-19T02:21:12.503Z,22.08
2022-12-19T02:24:00.826Z,26.20
2022-12-19T02:26:43.270Z,25.55
2022-12-19T02:29:31.386Z,25.75
2022-12-19T02:32:11.093Z,26.35
2022-12-19T02:34:47.484Z,19.70
2022-12-19T02:37:20.817Z,23.67
2022-12-19T02:39:57.614Z,25.50
2022-12-19T02:45:01.704Z,26.23
2022-12-19T02:47:32.315Z,20.70
2022-12-19T02:50:00.763Z,21.98
2022-12-19T02:55:00.411Z,19.73
2022-12-19T02:57:37.909Z,23.50
2022-12-19T03:00:07.113Z,24.77
2022-12-19T03:02:37.846Z,26.58
2022-12-19T03:05:13.134Z,23.52
2022-12-19T03:07:46.455Z,26.02
2022-12-19T03:10:22.526Z,27.30
2022-12-19T03:13:25.810Z,23.35
2022-12-19T03:15:52.755Z,20.08
2022-12-19T03:18:20.945Z,24.00
2022-12-19T03:21:08.673Z,23.23
2022-12-19T03:23:35.559Z,24.80
2022-12-19T03:26:06.904Z,20.23
2022-12-19T03:28:42.033Z,25.55
2022-12-19T03:31:10.883Z,24.40
2022-12-19T03:33:39.583Z,25.52
2022-12-19T03:36:10.483Z,24.98
2022-12-19T03:38:39.234Z,27.73
2022-12-19T03:41:10.815Z,28.58
2022-12-19T03:43:38.667Z,24.10
2022-12-19T03:46:25.376Z,22.58
2022-12-19T03:51:35.057Z,22.48
2022-12-19T03:54:13.627Z,27.80
2022-12-19T03:56:59.227Z,28.83
2022-12-19T03:59:37.893Z,22.17
2022-12-19T04:02:05.666Z,26.25
2022-12-19T04:04:37.788Z,23.73
2022-12-19T04:07:05.837Z,19.98
2022-12-19T04:09:34.463Z,21.80
2022-12-19T04:12:05.993Z,25.60
2022-12-19T04:14:35.771Z,25.77
2022-12-19T04:17:11.555Z,26.98
2022-12-19T04:19:46.702Z,24.55
2022-12-19T04:22:35.688Z,28.58
2022-12-19T04:25:07.396Z,25.45
2022-12-19T04:27:37.009Z,26.63
2022-12-19T04:30:04.551Z,24.80
2022-12-19T04:32:36.542Z,23.25
2022-12-19T04:35:03.416Z,20.40
2022-12-19T04:37:32.884Z,24.10
2022-12-19T04:39:59.861Z,23.88
2022-12-19T04:42:26.545Z,22.85
2022-12-19T04:44:52.990Z,22.48
2022-12-19T04:47:19.548Z,29.35
2022-12-19T04:49:46.206Z,22.80
2022-12-19T04:52:12.632Z,22.35
2022-12-19T04:54:39.066Z,23.35
2022-12-19T04:57:05.717Z,21.05
2022-12-19T04:59:32.539Z,24.10
2022-12-19T05:01:59.172Z,22.02
2022-12-19T05:06:55.755Z,23.15
2022-12-19T05:09:22.310Z,23.38
2022-12-19T05:11:49.227Z,20.70
2022-12-19T05:14:15.877Z,23.30
2022-12-19T05:16:42.321Z,23.05
2022-12-19T05:19:08.752Z,22.20
2022-12-19T05:21:35.632Z,26.17
2022-12-19T05:24:02.057Z,19.92
2022-12-19T05:26:28.944Z,20.38
2022-12-19T05:28:55.702Z,23.40
2022-12-19T05:31:22.163Z,26.02
2022-12-19T05:33:49.195Z,23.77
2022-12-19T05:36:17.409Z,24.70
2022-12-19T05:38:44.823Z,25.65
2022-12-19T05:41:16.851Z,24.50
2022-12-19T05:43:51.899Z,26.70
2022-12-19T05:46:18.935Z,36.72
2022-12-19T05:51:12.302Z,31.65
2022-12-19T05:53:40.272Z,33.05
2022-12-19T05:56:10.283Z,39.88
2022-12-19T05:58:38.357Z,34.15
2022-12-19T06:01:22.396Z,38.70
2022-12-19T06:03:49.880Z,30.23
2022-12-19T06:06:19.985Z,25.08
2022-12-19T06:08:46.812Z,26.10
2022-12-19T06:11:14.583Z,24.08
2022-12-19T06:13:41.964Z,22.95
2022-12-19T06:16:14.773Z,23.65
2022-12-19T06:18:44.825Z,21.48
2022-12-19T06:21:14.629Z,21.92
2022-12-19T06:23:42.109Z,21.92
2022-12-19T06:26:18.331Z,21.08
2022-12-19T06:28:46.180Z,22.80
2022-12-19T06:31:13.344Z,21.33
2022-12-19T06:33:40.794Z,23.17
2022-12-19T06:36:21.779Z,20.75
2022-12-19T06:38:49.432Z,20.17
2022-12-19T06:41:35.808Z,21.88
2022-12-19T06:44:04.907Z,17.70
2022-12-19T06:46:31.910Z,21.98
2022-12-19T06:51:24.978Z,22.70
2022-12-19T06:53:51.828Z,24.63
2022-12-19T06:56:18.873Z,24.17
2022-12-19T06:58:45.944Z,19.08
2022-12-19T07:01:37.552Z,26.25
2022-12-19T07:04:04.630Z,25.35
2022-12-19T07:08:57.651Z,23.52
2022-12-19T07:11:24.549Z,22.48
2022-12-19T07:13:51.118Z,22.50
2022-12-19T07:16:17.837Z,18.35
2022-12-19T07:18:45.891Z,25.92
2022-12-19T07:21:12.598Z,22.63
2022-12-19T07:23:40.549Z,19.00
2022-12-19T07:26:08.782Z,21.02
2022-12-19T07:28:36.747Z,22.92
2022-12-19T07:31:03.531Z,25.08
2022-12-19T07:33:32.438Z,22.10
2022-12-19T07:36:01.802Z,24.48
2022-12-19T07:38:31.388Z,22.67
2022-12-19T07:41:01.390Z,22.95
2022-12-19T07:43:27.915Z,28.23
2022-12-19T07:45:55.931Z,22.52
2022-12-19T07:48:22.977Z,22.88
2022-12-19T07:50:50.214Z,21.58
2022-12-19T07:53:16.774Z,20.15
2022-12-19T07:55:43.737Z,22.83
2022-12-19T07:58:11.253Z,22.45
2022-12-19T08:00:40.923Z,25.60
2022-12-19T08:03:07.527Z,20.60
2022-12-19T08:08:01.158Z,17.52
2022-12-19T08:10:27.585Z,20.60
2022-12-19T08:12:54.272Z,20.08
2022-12-19T08:15:21.002Z,23.45
2022-12-19T08:17:47.515Z,26.25
2022-12-19T08:20:13.987Z,25.35
2022-12-19T08:22:40.761Z,21.58
2022-12-19T08:25:07.842Z,21.38
2022-12-19T08:27:35.593Z,25.23
2022-12-19T08:30:02.816Z,19.92
2022-12-19T08:32:29.653Z,26.10
2022-12-19T08:34:58.984Z,27.98
2022-12-19T08:37:25.803Z,26.92
2022-12-19T08:39:52.260Z,29.27
2022-12-19T08:42:18.843Z,26.20
2022-12-19T08:44:45.778Z,22.95
2022-12-19T08:47:12.301Z,24.45
2022-12-19T08:49:38.901Z,24.35
2022-12-19T08:52:05.590Z,28.60
2022-12-19T08:54:32.139Z,25.65
2022-12-19T08:56:58.604Z,25.25
2022-12-19T08:59:30.915Z,24.65
2022-12-19T09:02:00.600Z,28.67
2022-12-19T09:05:07.365Z,26.83
2022-12-19T09:07:15.727Z,22.83
2022-12-19T09:09:43.504Z,24.77
2022-12-19T09:12:10.002Z,24.42
2022-12-19T09:14:36.695Z,26.00
2022-12-19T09:17:04.620Z,24.35
2022-12-19T09:19:31.740Z,21.90
2022-12-19T09:21:58.561Z,28.52
2022-12-19T09:24:27.375Z,24.48
2022-12-19T09:26:53.865Z,26.15
2022-12-19T09:29:22.020Z,27.73
2022-12-19T09:31:55.540Z,21.13
2022-12-19T09:34:38.335Z,29.13
2022-12-19T09:37:16.975Z,31.92
2022-12-19T09:39:45.951Z,21.42
2022-12-19T09:42:40.701Z,28.40
2022-12-19T09:45:27.779Z,25.67
2022-12-19T09:47:59.701Z,28.70
2022-12-19T09:50:26.125Z,25.92
2022-12-19T09:53:00.713Z,24.67
2022-12-19T09:55:37.727Z,25.77
2022-12-19T09:58:11.311Z,24.63
2022-12-19T10:00:43.867Z,27.95
2022-12-19T10:03:27.540Z,25.63
2022-12-19T10:07:09.002Z,19.80
2022-12-19T10:09:33.366Z,22.70
2022-12-19T10:14:32.968Z,21.45
2022-12-19T10:17:25.474Z,24.40
2022-12-19T10:20:09.581Z,21.30
2022-12-19T10:22:45.244Z,20.35
2022-12-19T10:25:11.976Z,21.88
2022-12-19T10:27:58.382Z,23.63
2022-12-19T10:30:27.930Z,20.45
2022-12-19T10:33:25.644Z,18.27
2022-12-19T10:36:01.742Z,21.33
2022-12-19T10:38:55.671Z,17.50
2022-12-19T10:41:25.746Z,21.40
2022-12-19T10:43:56.706Z,16.30
2022-12-19T10:46:40.019Z,17.48
2022-12-19T10:49:13.257Z,15.73
2022-12-19T10:51:40.761Z,13.60
2022-12-19T10:54:07.665Z,13.43
2022-12-19T10:56:38.072Z,11.90
2022-12-19T10:59:16.150Z,16.85
2022-12-19T11:01:43.975Z,21.00
2022-12-19T11:04:32.617Z,15.18
2022-12-19T11:07:18.033Z,13.07
2022-12-19T11:09:48.184Z,14.35
2022-12-19T11:17:29.493Z,17.23
2022-12-19T11:20:34.760Z,14.40
2022-12-19T11:29:17.149Z,13.90
2022-12-19T11:29:30.012Z,11.93
2022-12-19T11:29:40.174Z,13.55
2022-12-19T11:30:08.456Z,17.42
2022-12-19T11:32:45.042Z,15.00
2022-12-19T11:35:36.584Z,15.65
2022-12-19T11:38:06.770Z,17.15
2022-12-19T11:40:48.460Z,18.67
2022-12-19T11:43:46.670Z,16.85
2022-12-19T11:46:26.518Z,17.40
2022-12-19T11:49:04.986Z,19.52
2022-12-19T11:51:44.796Z,19.55
2022-12-19T11:54:23.829Z,18.45
2022-12-19T11:56:51.916Z,15.73
2022-12-19T11:59:31.038Z,22.55
2022-12-19T12:02:02.441Z,18.52
2022-12-19T12:05:01.880Z,18.45
2022-12-19T12:08:58.511Z,16.20
2022-12-19T12:13:29.293Z,16.63
2022-12-19T12:24:18.800Z,14.82
2022-12-19T12:30:42.511Z,15.45
2022-12-19T12:31:14.065Z,15.18
2022-12-19T12:31:38.460Z,18.15
2022-12-19T12:31:54.114Z,14.02
2022-12-19T12:31:57.034Z,14.02
2022-12-19T12:35:31.717Z,12.73
2022-12-19T12:35:46.912Z,14.63
2022-12-19T12:40:58.662Z,12.27
2022-12-19T12:43:32.016Z,14.25
2022-12-19T12:45:58.519Z,14.32
2022-12-19T12:48:27.778Z,14.48
2022-12-19T12:50:59.003Z,15.82
2022-12-19T12:53:34.141Z,17.58
2022-12-19T12:56:07.224Z,14.32
2022-12-19T12:58:49.844Z,16.35
2022-12-19T13:01:29.631Z,15.40
2022-12-19T13:04:02.677Z,16.95
2022-12-19T13:06:35.886Z,15.00
2022-12-19T13:09:28.087Z,14.52
2022-12-19T13:12:35.154Z,13.70
2022-12-19T13:15:34.237Z,11.48
2022-12-19T13:18:09.573Z,15.85
2022-12-19T13:20:45.085Z,21.67
2022-12-19T13:23:36.011Z,15.02
2022-12-19T13:26:02.841Z,15.43
2022-12-19T13:28:29.493Z,14.00
2022-12-19T13:31:20.273Z,17.83
2022-12-19T13:33:56.380Z,21.70
2022-12-19T13:39:54.162Z,18.42
2022-12-19T13:39:57.247Z,13.85
2022-12-19T13:42:55.138Z,14.48
2022-12-19T13:48:15.676Z,16.70
2022-12-19T13:50:45.907Z,15.57
2022-12-19T13:53:19.902Z,19.92
2022-12-19T13:55:46.617Z,16.75
2022-12-19T13:58:28.923Z,17.33
2022-12-19T14:01:01.169Z,16.50
2022-12-19T14:03:37.115Z,15.73
2022-12-19T14:06:17.235Z,15.13
2022-12-19T14:08:47.562Z,15.48
2022-12-19T14:11:40.891Z,15.70
2022-12-19T14:14:34.568Z,17.50
2022-12-19T14:17:15.996Z,17.63
2022-12-19T14:19:50.284Z,15.98
2022-12-19T14:22:24.830Z,20.92
2022-12-19T14:25:49.222Z,17.67
2022-12-19T14:28:24.034Z,19.77
2022-12-19T14:30:47.593Z,17.75
2022-12-19T14:33:45.774Z,18.17
2022-12-19T14:36:16.046Z,18.02
2022-12-19T14:39:26.346Z,19.85
2022-12-19T14:42:01.865Z,23.17
2022-12-19T14:52:34.788Z,23.13
2022-12-19T14:52:35.768Z,18.95
2022-12-19T14:54:07.106Z,22.48
2022-12-19T14:59:01.493Z,31.08
2022-12-19T15:01:32.177Z,26.67
2022-12-19T15:04:51.140Z,31.38
2022-12-19T15:07:09.985Z,41.38
2022-12-19T15:11:02.451Z,26.63
2022-12-19T15:14:51.839Z,23.30
2022-12-19T15:16:07.271Z,29.48
2022-12-19T15:18:33.987Z,31.63
2022-12-19T15:21:03.962Z,25.27
2022-12-19T15:23:31.047Z,27.02
2022-12-19T15:28:43.391Z,24.73
2022-12-19T15:31:20.638Z,27.88
2022-12-19T15:34:23.254Z,32.10
2022-12-19T15:36:36.455Z,32.22
2022-12-19T15:39:05.238Z,35.75
2022-12-19T15:41:32.412Z,34.83
2022-12-19T15:44:05.174Z,33.53
2022-12-19T15:46:32.692Z,29.40
2022-12-19T15:51:26.452Z,35.03
2022-12-19T15:53:53.575Z,30.52
2022-12-19T15:56:31.835Z,38.28
2022-12-19T15:59:02.315Z,36.92
2022-12-19T16:01:32.084Z,34.85
2022-12-19T16:04:00.674Z,31.45
2022-12-19T16:06:27.504Z,38.63
2022-12-19T16:08:57.903Z,36.00
2022-12-19T16:11:25.896Z,36.28
2022-12-19T16:13:58.247Z,55.33
2022-12-19T16:16:26.486Z,39.17
2022-12-19T16:18:52.963Z,44.50
2022-12-19T16:21:34.121Z,38.42
2022-12-19T16:24:03.972Z,35.58
2022-12-19T16:26:36.407Z,36.78
2022-12-19T16:29:03.861Z,39.10
2022-12-19T16:31:31.913Z,39.00
2022-12-19T16:33:58.660Z,55.25
2022-12-19T16:36:25.708Z,43.38
2022-12-19T16:41:23.596Z,39.22
2022-12-19T16:43:52.620Z,37.20
2022-12-19T16:46:22.091Z,38.53
2022-12-19T16:48:49.854Z,44.53
2022-12-19T16:51:27.788Z,35.95
2022-12-19T16:53:58.786Z,39.78
2022-12-19T16:56:30.293Z,42.50
2022-12-19T16:59:01.068Z,40.53
2022-12-19T17:01:28.380Z,40.20
2022-12-19T17:03:55.416Z,47.78
2022-12-19T17:06:23.561Z,44.97
2022-12-19T17:08:50.259Z,41.00
2022-12-19T17:11:24.488Z,43.95
2022-12-19T17:13:55.487Z,45.80
2022-12-19T17:16:22.764Z,43.47
2022-12-19T17:18:51.748Z,41.28
2022-12-19T17:21:21.416Z,44.28
2022-12-19T17:23:51.338Z,47.40
2022-12-19T17:26:18.628Z,44.05
2022-12-19T17:28:48.762Z,42.65
2022-12-19T17:31:28.389Z,52.58
2022-12-19T17:33:58.315Z,41.70
2022-12-19T17:36:36.555Z,51.70
2022-12-19T17:39:26.201Z,45.92
2022-12-19T17:41:55.440Z,39.80
2022-12-19T17:44:22.402Z,47.78
2022-12-19T17:46:49.472Z,41.20
2022-12-19T17:49:31.108Z,46.72
2022-12-19T17:51:59.412Z,54.92
2022-12-19T17:54:27.489Z,47.92
2022-12-19T17:56:55.010Z,44.67
2022-12-19T17:59:21.708Z,47.20
2022-12-19T18:01:48.616Z,48.28
2022-12-19T18:06:44.457Z,36.80
2022-12-19T18:09:17.901Z,46.00
2022-12-19T18:11:44.751Z,47.28
2022-12-19T18:14:11.392Z,39.22
2022-12-19T18:16:39.417Z,40.05
2022-12-19T18:19:06.758Z,42.67
2022-12-19T18:21:33.282Z,44.17
2022-12-19T18:23:59.881Z,35.05
2022-12-19T18:26:26.420Z,35.88
2022-12-19T18:28:54.467Z,35.17
2022-12-19T18:31:25.723Z,43.42
2022-12-19T18:33:57.703Z,36.58
2022-12-19T18:36:29.199Z,43.00
2022-12-19T18:38:56.881Z,36.30
2022-12-19T18:41:23.885Z,37.70
2022-12-19T18:43:50.786Z,37.70
2022-12-19T18:46:24.820Z,39.22
2022-12-19T18:48:51.535Z,38.80
2022-12-19T18:51:20.864Z,32.97
2022-12-19T18:53:48.828Z,35.42
2022-12-19T18:56:16.210Z,36.65
2022-12-19T18:58:43.409Z,37.70
2022-12-19T19:01:21.137Z,36.20
2022-12-19T19:03:56.369Z,42.60
2022-12-19T19:06:26.788Z,35.03
2022-12-19T19:08:56.670Z,40.67
2022-12-19T19:11:42.481Z,37.00
2022-12-19T19:16:40.181Z,27.00
2022-12-19T19:19:11.715Z,25.00
2022-12-19T19:21:42.236Z,25.33
2022-12-19T19:24:14.274Z,29.60
2022-12-19T19:26:43.166Z,24.85
2022-12-19T19:29:13.408Z,31.00
2022-12-19T19:31:46.369Z,29.88
2022-12-19T19:34:27.968Z,31.10
2022-12-19T19:37:03.665Z,29.88
2022-12-19T19:39:33.221Z,26.92
2022-12-19T19:42:02.366Z,26.90
2022-12-19T19:44:30.280Z,36.35
2022-12-19T19:46:57.766Z,31.08
2022-12-19T19:49:28.378Z,30.98
2022-12-19T19:54:34.752Z,20.17
2022-12-19T19:57:01.622Z,40.70
2022-12-19T20:01:57.926Z,27.80
2022-12-19T20:04:26.169Z,37.25
2022-12-19T20:06:52.952Z,31.10
2022-12-19T20:09:20.889Z,27.17
2022-12-19T20:11:47.924Z,25.55
2022-12-19T20:14:17.156Z,24.88
2022-12-19T20:16:44.282Z,25.10
2022-12-19T20:19:11.838Z,23.05
2022-12-19T20:21:38.813Z,23.40
2022-12-19T20:24:06.254Z,24.70
2022-12-19T20:26:33.858Z,26.25
2022-12-19T20:29:01.889Z,22.10
2022-12-19T20:31:28.782Z,30.27
2022-12-19T20:33:56.407Z,27.42
2022-12-19T20:36:24.933Z,24.10
2022-12-19T20:38:53.357Z,22.70
2022-12-19T20:41:22.453Z,23.70
2022-12-19T20:43:51.208Z,20.17
2022-12-19T20:46:20.107Z,26.17
2022-12-19T20:48:48.042Z,23.33
2022-12-19T20:51:16.550Z,20.58
2022-12-19T20:53:43.903Z,21.60
2022-12-19T20:56:19.234Z,22.05
2022-12-19T20:58:47.195Z,22.65
2022-12-19T21:01:19.156Z,22.00
2022-12-19T21:03:52.822Z,20.88
2022-12-19T21:06:31.057Z,24.10
2022-12-19T21:08:58.030Z,19.05
2022-12-19T21:11:26.586Z,17.98
2022-12-19T21:13:53.707Z,16.40
2022-12-19T21:16:22.126Z,17.23
2022-12-19T21:18:51.012Z,16.95
2022-12-19T21:21:22.652Z,19.45
2022-12-19T21:23:53.179Z,21.73
2022-12-19T21:26:24.257Z,16.67
2022-12-19T21:28:57.788Z,17.60
2022-12-19T21:31:29.096Z,14.05
2022-12-19T21:33:58.430Z,14.55
2022-12-19T21:36:27.649Z,15.90
2022-12-19T21:38:57.935Z,15.43
2022-12-19T21:41:25.594Z,13.25
2022-12-19T21:43:54.426Z,14.73
2022-12-19T21:46:27.902Z,17.27
2022-12-19T21:49:02.822Z,13.77
2022-12-19T21:51:31.725Z,12.38
2022-12-19T21:54:01.166Z,12.52
2022-12-19T21:56:36.053Z,12.88
2022-12-19T21:59:12.584Z,13.63
2022-12-19T22:01:41.018Z,11.63
2022-12-19T22:04:11.953Z,12.93
2022-12-19T22:06:41.818Z,12.15
2022-12-19T22:09:12.222Z,13.63
2022-12-19T22:11:39.275Z,13.75
2022-12-19T22:14:07.115Z,15.63
2022-12-19T22:16:35.868Z,11.68
2022-12-19T22:19:03.655Z,13.48
2022-12-19T22:21:31.582Z,13.93
2022-12-19T22:23:59.884Z,10.63
2022-12-19T22:26:28.281Z,11.93
2022-12-19T22:28:57.167Z,11.48
2022-12-19T22:31:32.760Z,25.38
2022-12-19T22:34:26.681Z,11.80
2022-12-19T22:36:53.284Z,14.85
2022-12-19T22:39:22.452Z,14.38
2022-12-19T22:41:51.640Z,14.30
2022-12-19T22:44:22.383Z,13.27
2022-12-19T22:46:50.573Z,12.95
2022-12-19T22:49:17.812Z,12.77
2022-12-19T22:51:46.228Z,13.30
2022-12-19T22:54:13.837Z,11.15
2022-12-19T22:56:41.786Z,11.85
2022-12-19T22:59:11.445Z,15.63
2022-12-19T23:01:43.150Z,14.98
2022-12-19T23:04:13.470Z,13.43
2022-12-19T23:06:41.015Z,14.07
2022-12-19T23:09:09.189Z,14.13
2022-12-19T23:11:38.481Z,12.38
2022-12-19T23:14:06.795Z,11.10
2022-12-19T23:16:33.426Z,15.88
2022-12-19T23:19:00.337Z,12.55
2022-12-19T23:21:27.643Z,14.63
2022-12-19T23:23:55.915Z,12.73
2022-12-19T23:26:35.682Z,15.20
2022-12-19T23:29:05.564Z,14.20
2022-12-19T23:31:32.424Z,12.48
2022-12-19T23:34:00.032Z,14.15
2022-12-19T23:37:08.495Z,10.48
2022-12-19T23:39:14.824Z,11.40
2022-12-19T23:41:41.515Z,12.05
2022-12-19T23:44:09.818Z,11.15
2022-12-19T23:46:37.588Z,11.63
2022-12-19T23:49:04.674Z,9.95
2022-12-19T23:53:57.574Z,12.52
2022-12-19T23:56:27.120Z,12.50
2022-12-19T23:58:54.079Z,10.23
